sensor_id;sensor_type;location;lat;lon;timestamp;P1;durP1;ratioP1;P2;durP2;ratioP2
69047;SDS011;56119;50.118;8.642;2023-04-01T00:01:27;5.13;;;1.50;;
69047;SDS011;56119;50.118;8.642;2023-04-01T00:03:53;5.78;;;1.50;;
69047;SDS011;56119;50.118;8.642;2023-04-01T00:06:19;3.55;;;1.00;;
69047;SDS011;56119;50.118;8.642;2023-04-01T00:08:45;7.25;;;1.25;;
69047;SDS011;56119;50.118;8.642;2023-04-01T00:11:11;3.97;;;1.33;;
69047;SDS011;56119;50.118;8.642;2023-04-01T00:13:37;4.93;;;1.30;;
69047;SDS011;56119;50.118;8.642;2023-04-01T00:16:04;3.70;;;1.20;;
69047;SDS011;56119;50.118;8.642;2023-04-01T00:18:30;5.10;;;1.20;;
69047;SDS011;56119;50.118;8.642;2023-04-01T00:20:56;4.95;;;1.33;;
69047;SDS011;56119;50.118;8.642;2023-04-01T00:23:22;4.50;;;1.30;;
69047;SDS011;56119;50.118;8.642;2023-04-01T00:25:48;4.03;;;1.02;;
69047;SDS011;56119;50.118;8.642;2023-04-01T00:28:15;4.97;;;1.35;;
69047;SDS011;56119;50.118;8.642;2023-04-01T00:30:41;6.97;;;1.38;;
69047;SDS011;56119;50.118;8.642;2023-04-01T00:33:07;6.45;;;1.70;;
69047;SDS011;56119;50.118;8.642;2023-04-01T00:35:33;7.60;;;1.17;;
69047;SDS011;56119;50.118;8.642;2023-04-01T00:38:00;2.10;;;1.00;;
69047;SDS011;56119;50.118;8.642;2023-04-01T00:42:53;6.03;;;1.30;;
69047;SDS011;56119;50.118;8.642;2023-04-01T00:45:35;3.60;;;1.23;;
69047;SDS011;56119;50.118;8.642;2023-04-01T00:50:47;6.93;;;1.20;;
69047;SDS011;56119;50.118;8.642;2023-04-01T00:53:14;4.57;;;1.15;;
69047;SDS011;56119;50.118;8.642;2023-04-01T00:55:41;8.18;;;1.30;;
69047;SDS011;56119;50.118;8.642;2023-04-01T00:58:11;5.55;;;1.27;;
69047;SDS011;56119;50.118;8.642;2023-04-01T01:00:39;5.68;;;1.40;;
69047;SDS011;56119;50.118;8.642;2023-04-01T01:03:11;2.15;;;1.00;;
69047;SDS011;56119;50.118;8.642;2023-04-01T01:08:58;4.45;;;0.80;;
69047;SDS011;56119;50.118;8.642;2023-04-01T01:11:35;5.35;;;1.08;;
69047;SDS011;56119;50.118;8.642;2023-04-01T01:16:49;3.15;;;0.93;;
69047;SDS011;56119;50.118;8.642;2023-04-01T01:19:23;5.28;;;1.00;;
69047;SDS011;56119;50.118;8.642;2023-04-01T01:21:58;2.97;;;0.90;;
69047;SDS011;56119;50.118;8.642;2023-04-01T01:27:17;2.88;;;0.90;;
69047;SDS011;56119;50.118;8.642;2023-04-01T01:35:18;6.88;;;1.52;;
69047;SDS011;56119;50.118;8.642;2023-04-01T01:37:46;4.57;;;1.13;;
69047;SDS011;56119;50.118;8.642;2023-04-01T01:40:13;3.83;;;0.95;;
69047;SDS011;56119;50.118;8.642;2023-04-01T01:42:40;4.18;;;1.35;;
69047;SDS011;56119;50.118;8.642;2023-04-01T01:45:08;5.35;;;1.33;;
69047;SDS011;56119;50.118;8.642;2023-04-01T01:47:35;5.25;;;0.90;;
69047;SDS011;56119;50.118;8.642;2023-04-01T01:50:02;3.53;;;1.10;;
69047;SDS011;56119;50.118;8.642;2023-04-01T01:52:29;3.25;;;0.80;;
69047;SDS011;56119;50.118;8.642;2023-04-01T01:54:56;4.32;;;1.40;;
69047;SDS011;56119;50.118;8.642;2023-04-01T01:57:26;6.57;;;1.20;;
69047;SDS011;56119;50.118;8.642;2023-04-01T01:59:55;5.75;;;1.25;;
69047;SDS011;56119;50.118;8.642;2023-04-01T02:02:22;3.58;;;0.80;;
69047;SDS011;56119;50.118;8.642;2023-04-01T02:04:49;4.30;;;0.98;;
69047;SDS011;56119;50.118;8.642;2023-04-01T02:07:18;3.50;;;1.10;;
69047;SDS011;56119;50.118;8.642;2023-04-01T02:09:45;4.95;;;0.90;;
69047;SDS011;56119;50.118;8.642;2023-04-01T02:12:12;5.40;;;1.23;;
69047;SDS011;56119;50.118;8.642;2023-04-01T02:14:51;5.25;;;1.00;;
69047;SDS011;56119;50.118;8.642;2023-04-01T02:17:22;4.28;;;1.10;;
69047;SDS011;56119;50.118;8.642;2023-04-01T02:19:53;5.88;;;0.95;;
69047;SDS011;56119;50.118;8.642;2023-04-01T02:22:22;5.20;;;1.10;;
69047;SDS011;56119;50.118;8.642;2023-04-01T02:24:50;3.55;;;1.20;;
69047;SDS011;56119;50.118;8.642;2023-04-01T02:27:19;3.67;;;0.90;;
69047;SDS011;56119;50.118;8.642;2023-04-01T02:29:45;3.97;;;1.35;;
69047;SDS011;56119;50.118;8.642;2023-04-01T02:32:11;5.70;;;1.00;;
69047;SDS011;56119;50.118;8.642;2023-04-01T02:34:38;3.20;;;0.80;;
69047;SDS011;56119;50.118;8.642;2023-04-01T02:37:04;6.53;;;1.17;;
69047;SDS011;56119;50.118;8.642;2023-04-01T02:39:30;3.60;;;1.13;;
69047;SDS011;56119;50.118;8.642;2023-04-01T02:41:57;5.38;;;1.10;;
69047;SDS011;56119;50.118;8.642;2023-04-01T02:44:23;5.15;;;1.05;;
69047;SDS011;56119;50.118;8.642;2023-04-01T02:46:48;3.75;;;1.00;;
69047;SDS011;56119;50.118;8.642;2023-04-01T02:49:14;4.43;;;1.00;;
69047;SDS011;56119;50.118;8.642;2023-04-01T02:51:40;5.03;;;1.00;;
69047;SDS011;56119;50.118;8.642;2023-04-01T02:54:06;3.35;;;1.52;;
69047;SDS011;56119;50.118;8.642;2023-04-01T02:56:32;3.38;;;1.00;;
69047;SDS011;56119;50.118;8.642;2023-04-01T02:58:58;3.00;;;0.88;;
69047;SDS011;56119;50.118;8.642;2023-04-01T03:01:24;3.08;;;0.90;;
69047;SDS011;56119;50.118;8.642;2023-04-01T03:03:50;4.90;;;0.88;;
69047;SDS011;56119;50.118;8.642;2023-04-01T03:06:17;3.97;;;1.02;;
69047;SDS011;56119;50.118;8.642;2023-04-01T03:08:43;2.20;;;0.80;;
69047;SDS011;56119;50.118;8.642;2023-04-01T03:11:09;2.63;;;1.00;;
69047;SDS011;56119;50.118;8.642;2023-04-01T03:13:36;5.70;;;1.25;;
69047;SDS011;56119;50.118;8.642;2023-04-01T03:16:02;3.78;;;0.80;;
69047;SDS011;56119;50.118;8.642;2023-04-01T03:18:28;5.97;;;1.10;;
69047;SDS011;56119;50.118;8.642;2023-04-01T03:20:54;4.95;;;1.40;;
69047;SDS011;56119;50.118;8.642;2023-04-01T03:23:20;4.93;;;1.17;;
69047;SDS011;56119;50.118;8.642;2023-04-01T03:25:47;4.80;;;1.08;;
69047;SDS011;56119;50.118;8.642;2023-04-01T03:28:13;4.80;;;1.15;;
69047;SDS011;56119;50.118;8.642;2023-04-01T03:30:39;5.47;;;0.90;;
69047;SDS011;56119;50.118;8.642;2023-04-01T03:33:05;3.80;;;0.70;;
69047;SDS011;56119;50.118;8.642;2023-04-01T03:35:32;4.68;;;1.00;;
69047;SDS011;56119;50.118;8.642;2023-04-01T03:38:00;5.18;;;1.10;;
69047;SDS011;56119;50.118;8.642;2023-04-01T03:40:26;4.03;;;0.80;;
69047;SDS011;56119;50.118;8.642;2023-04-01T03:42:52;3.13;;;1.00;;
69047;SDS011;56119;50.118;8.642;2023-04-01T03:45:18;4.30;;;0.98;;
69047;SDS011;56119;50.118;8.642;2023-04-01T03:47:44;6.85;;;1.35;;
69047;SDS011;56119;50.118;8.642;2023-04-01T03:50:10;4.07;;;0.90;;
69047;SDS011;56119;50.118;8.642;2023-04-01T03:52:36;8.63;;;1.48;;
69047;SDS011;56119;50.118;8.642;2023-04-01T03:55:03;6.95;;;1.08;;
69047;SDS011;56119;50.118;8.642;2023-04-01T03:57:32;8.48;;;1.25;;
69047;SDS011;56119;50.118;8.642;2023-04-01T03:59:58;3.28;;;1.02;;
69047;SDS011;56119;50.118;8.642;2023-04-01T04:02:25;4.15;;;0.93;;
69047;SDS011;56119;50.118;8.642;2023-04-01T04:04:50;2.88;;;1.00;;
69047;SDS011;56119;50.118;8.642;2023-04-01T04:07:16;2.38;;;0.80;;
69047;SDS011;56119;50.118;8.642;2023-04-01T04:09:42;2.13;;;0.90;;
69047;SDS011;56119;50.118;8.642;2023-04-01T04:12:09;4.10;;;0.88;;
69047;SDS011;56119;50.118;8.642;2023-04-01T04:14:35;6.10;;;1.17;;
69047;SDS011;56119;50.118;8.642;2023-04-01T04:17:01;5.93;;;1.20;;
69047;SDS011;56119;50.118;8.642;2023-04-01T04:19:30;3.97;;;0.88;;
69047;SDS011;56119;50.118;8.642;2023-04-01T04:21:58;4.28;;;0.85;;
69047;SDS011;56119;50.118;8.642;2023-04-01T04:24:26;2.78;;;0.88;;
69047;SDS011;56119;50.118;8.642;2023-04-01T04:26:52;6.57;;;1.48;;
69047;SDS011;56119;50.118;8.642;2023-04-01T04:29:18;4.20;;;1.20;;
69047;SDS011;56119;50.118;8.642;2023-04-01T04:31:44;3.70;;;1.17;;
69047;SDS011;56119;50.118;8.642;2023-04-01T04:34:10;3.00;;;0.55;;
69047;SDS011;56119;50.118;8.642;2023-04-01T04:36:36;4.97;;;1.10;;
69047;SDS011;56119;50.118;8.642;2023-04-01T04:39:02;5.40;;;1.55;;
69047;SDS011;56119;50.118;8.642;2023-04-01T04:41:28;6.47;;;1.10;;
69047;SDS011;56119;50.118;8.642;2023-04-01T04:43:55;5.65;;;1.10;;
69047;SDS011;56119;50.118;8.642;2023-04-01T04:46:21;4.77;;;1.30;;
69047;SDS011;56119;50.118;8.642;2023-04-01T04:48:48;4.90;;;1.23;;
69047;SDS011;56119;50.118;8.642;2023-04-01T04:51:15;4.80;;;0.93;;
69047;SDS011;56119;50.118;8.642;2023-04-01T04:53:41;2.88;;;0.70;;
69047;SDS011;56119;50.118;8.642;2023-04-01T04:56:07;3.70;;;1.00;;
69047;SDS011;56119;50.118;8.642;2023-04-01T04:58:33;6.88;;;1.20;;
69047;SDS011;56119;50.118;8.642;2023-04-01T05:01:04;6.85;;;1.38;;
69047;SDS011;56119;50.118;8.642;2023-04-01T05:03:30;7.70;;;0.95;;
69047;SDS011;56119;50.118;8.642;2023-04-01T05:05:56;4.78;;;1.42;;
69047;SDS011;56119;50.118;8.642;2023-04-01T05:08:22;9.15;;;1.15;;
69047;SDS011;56119;50.118;8.642;2023-04-01T05:10:48;3.58;;;0.90;;
69047;SDS011;56119;50.118;8.642;2023-04-01T05:13:14;2.90;;;0.70;;
69047;SDS011;56119;50.118;8.642;2023-04-01T05:15:40;6.47;;;1.02;;
69047;SDS011;56119;50.118;8.642;2023-04-01T05:18:06;4.93;;;0.98;;
69047;SDS011;56119;50.118;8.642;2023-04-01T05:20:32;6.13;;;1.00;;
69047;SDS011;56119;50.118;8.642;2023-04-01T05:22:58;3.30;;;0.80;;
69047;SDS011;56119;50.118;8.642;2023-04-01T05:25:25;4.38;;;1.30;;
69047;SDS011;56119;50.118;8.642;2023-04-01T05:27:51;7.30;;;0.98;;
69047;SDS011;56119;50.118;8.642;2023-04-01T05:30:17;3.13;;;1.45;;
69047;SDS011;56119;50.118;8.642;2023-04-01T05:32:43;5.85;;;0.80;;
69047;SDS011;56119;50.118;8.642;2023-04-01T05:35:09;3.22;;;1.10;;
69047;SDS011;56119;50.118;8.642;2023-04-01T05:37:36;5.43;;;0.85;;
69047;SDS011;56119;50.118;8.642;2023-04-01T05:40:02;2.10;;;0.85;;
69047;SDS011;56119;50.118;8.642;2023-04-01T05:42:29;4.05;;;1.30;;
69047;SDS011;56119;50.118;8.642;2023-04-01T05:44:55;3.38;;;1.65;;
69047;SDS011;56119;50.118;8.642;2023-04-01T05:47:21;5.43;;;1.13;;
69047;SDS011;56119;50.118;8.642;2023-04-01T05:49:47;5.43;;;1.08;;
69047;SDS011;56119;50.118;8.642;2023-04-01T05:52:13;3.67;;;0.80;;
69047;SDS011;56119;50.118;8.642;2023-04-01T05:54:39;5.60;;;1.08;;
69047;SDS011;56119;50.118;8.642;2023-04-01T05:57:05;3.10;;;0.90;;
69047;SDS011;56119;50.118;8.642;2023-04-01T05:59:31;4.07;;;0.98;;
69047;SDS011;56119;50.118;8.642;2023-04-01T06:01:59;3.70;;;0.80;;
69047;SDS011;56119;50.118;8.642;2023-04-01T06:04:26;3.78;;;1.00;;
69047;SDS011;56119;50.118;8.642;2023-04-01T06:06:55;4.13;;;0.90;;
69047;SDS011;56119;50.118;8.642;2023-04-01T06:09:24;5.75;;;1.00;;
69047;SDS011;56119;50.118;8.642;2023-04-01T06:25:35;5.38;;;0.70;;
69047;SDS011;56119;50.118;8.642;2023-04-01T06:33:31;5.15;;;0.60;;
69047;SDS011;56119;50.118;8.642;2023-04-01T06:57:34;2.53;;;0.85;;
69047;SDS011;56119;50.118;8.642;2023-04-01T07:00:02;3.35;;;1.17;;
69047;SDS011;56119;50.118;8.642;2023-04-01T07:05:13;2.53;;;0.70;;
69047;SDS011;56119;50.118;8.642;2023-04-01T07:07:43;5.45;;;1.05;;
69047;SDS011;56119;50.118;8.642;2023-04-01T07:10:53;3.33;;;0.90;;
69047;SDS011;56119;50.118;8.642;2023-04-01T07:13:02;2.55;;;0.70;;
69047;SDS011;56119;50.118;8.642;2023-04-01T07:15:30;3.75;;;0.80;;
69047;SDS011;56119;50.118;8.642;2023-04-01T07:18:02;3.83;;;0.73;;
69047;SDS011;56119;50.118;8.642;2023-04-01T07:20:29;2.40;;;0.50;;
69047;SDS011;56119;50.118;8.642;2023-04-01T07:22:58;4.50;;;1.35;;
69047;SDS011;56119;50.118;8.642;2023-04-01T07:25:25;4.40;;;0.90;;
69047;SDS011;56119;50.118;8.642;2023-04-01T07:27:53;3.25;;;0.80;;
69047;SDS011;56119;50.118;8.642;2023-04-01T07:30:22;4.90;;;1.02;;
69047;SDS011;56119;50.118;8.642;2023-04-01T07:33:05;2.58;;;0.75;;
69047;SDS011;56119;50.118;8.642;2023-04-01T07:35:57;4.15;;;0.55;;
69047;SDS011;56119;50.118;8.642;2023-04-01T07:38:24;3.92;;;0.70;;
69047;SDS011;56119;50.118;8.642;2023-04-01T07:40:59;2.25;;;0.70;;
69047;SDS011;56119;50.118;8.642;2023-04-01T07:43:34;1.48;;;0.60;;
69047;SDS011;56119;50.118;8.642;2023-04-01T07:46:22;3.40;;;0.80;;
69047;SDS011;56119;50.118;8.642;2023-04-01T07:49:39;2.72;;;0.65;;
69047;SDS011;56119;50.118;8.642;2023-04-01T07:51:48;0.80;;;0.32;;
69047;SDS011;56119;50.118;8.642;2023-04-01T07:54:22;2.35;;;0.60;;
69047;SDS011;56119;50.118;8.642;2023-04-01T07:57:08;1.73;;;0.40;;
69047;SDS011;56119;50.118;8.642;2023-04-01T08:07:45;1.48;;;0.40;;
69047;SDS011;56119;50.118;8.642;2023-04-01T08:15:24;2.33;;;0.35;;
69047;SDS011;56119;50.118;8.642;2023-04-01T08:20:47;0.47;;;0.30;;
69047;SDS011;56119;50.118;8.642;2023-04-01T08:23:18;2.47;;;0.43;;
69047;SDS011;56119;50.118;8.642;2023-04-01T08:25:50;2.10;;;0.50;;
69047;SDS011;56119;50.118;8.642;2023-04-01T08:28:27;0.93;;;0.32;;
69047;SDS011;56119;50.118;8.642;2023-04-01T08:31:00;1.25;;;0.38;;
69047;SDS011;56119;50.118;8.642;2023-04-01T08:33:29;1.20;;;0.30;;
69047;SDS011;56119;50.118;8.642;2023-04-01T08:36:01;0.50;;;0.28;;
69047;SDS011;56119;50.118;8.642;2023-04-01T08:38:31;0.98;;;0.32;;
69047;SDS011;56119;50.118;8.642;2023-04-01T08:41:07;0.98;;;0.35;;
69047;SDS011;56119;50.118;8.642;2023-04-01T08:43:56;0.98;;;0.30;;
69047;SDS011;56119;50.118;8.642;2023-04-01T08:46:35;1.92;;;0.38;;
69047;SDS011;56119;50.118;8.642;2023-04-01T08:54:26;1.50;;;0.38;;
69047;SDS011;56119;50.118;8.642;2023-04-01T09:02:13;1.90;;;0.65;;
69047;SDS011;56119;50.118;8.642;2023-04-01T09:04:50;2.13;;;0.60;;
69047;SDS011;56119;50.118;8.642;2023-04-01T09:07:31;1.10;;;0.30;;
69047;SDS011;56119;50.118;8.642;2023-04-01T09:22:50;1.85;;;0.30;;
69047;SDS011;56119;50.118;8.642;2023-04-01T09:33:29;0.82;;;0.40;;
69047;SDS011;56119;50.118;8.642;2023-04-01T09:36:18;1.58;;;0.35;;
69047;SDS011;56119;50.118;8.642;2023-04-01T09:41:51;0.63;;;0.30;;
69047;SDS011;56119;50.118;8.642;2023-04-01T09:44:22;0.32;;;0.30;;
69047;SDS011;56119;50.118;8.642;2023-04-01T09:47:01;0.77;;;0.40;;
69047;SDS011;56119;50.118;8.642;2023-04-01T09:49:38;0.80;;;0.30;;
69047;SDS011;56119;50.118;8.642;2023-04-01T09:52:16;2.03;;;0.40;;
69047;SDS011;56119;50.118;8.642;2023-04-01T09:54:51;0.40;;;0.30;;
69047;SDS011;56119;50.118;8.642;2023-04-01T10:02:50;0.50;;;0.28;;
69047;SDS011;56119;50.118;8.642;2023-04-01T10:08:15;0.20;;;0.20;;
69047;SDS011;56119;50.118;8.642;2023-04-01T10:26:52;1.30;;;0.30;;
69047;SDS011;56119;50.118;8.642;2023-04-01T10:37:13;0.45;;;0.30;;
69047;SDS011;56119;50.118;8.642;2023-04-01T10:39:50;0.63;;;0.20;;
69047;SDS011;56119;50.118;8.642;2023-04-01T10:47:44;1.08;;;0.30;;
69047;SDS011;56119;50.118;8.642;2023-04-01T10:50:24;0.57;;;0.28;;
69047;SDS011;56119;50.118;8.642;2023-04-01T10:55:37;0.43;;;0.30;;
69047;SDS011;56119;50.118;8.642;2023-04-01T11:17:08;0.45;;;0.20;;
69047;SDS011;56119;50.118;8.642;2023-04-01T11:19:52;1.20;;;0.20;;
69047;SDS011;56119;50.118;8.642;2023-04-01T11:22:32;0.35;;;0.30;;
69047;SDS011;56119;50.118;8.642;2023-04-01T11:32:43;1.67;;;0.35;;
69047;SDS011;56119;50.118;8.642;2023-04-01T11:35:22;0.82;;;0.30;;
69047;SDS011;56119;50.118;8.642;2023-04-01T11:45:22;2.55;;;0.50;;
69047;SDS011;56119;50.118;8.642;2023-04-01T11:53:00;0.25;;;0.20;;
69047;SDS011;56119;50.118;8.642;2023-04-01T11:55:31;0.30;;;0.20;;
69047;SDS011;56119;50.118;8.642;2023-04-01T11:58:19;0.93;;;0.50;;
69047;SDS011;56119;50.118;8.642;2023-04-01T12:06:02;0.10;;;0.10;;
69047;SDS011;56119;50.118;8.642;2023-04-01T12:11:15;0.38;;;0.10;;
69047;SDS011;56119;50.118;8.642;2023-04-01T12:16:37;1.02;;;0.10;;
69047;SDS011;56119;50.118;8.642;2023-04-01T12:21:45;0.63;;;0.20;;
69047;SDS011;56119;50.118;8.642;2023-04-01T12:27:19;1.00;;;0.47;;
69047;SDS011;56119;50.118;8.642;2023-04-01T12:30:02;1.33;;;0.32;;
69047;SDS011;56119;50.118;8.642;2023-04-01T12:35:02;0.70;;;0.50;;
69047;SDS011;56119;50.118;8.642;2023-04-01T12:42:53;1.17;;;0.60;;
69047;SDS011;56119;50.118;8.642;2023-04-01T12:48:10;0.65;;;0.30;;
69047;SDS011;56119;50.118;8.642;2023-04-01T12:55:45;1.88;;;0.60;;
69047;SDS011;56119;50.118;8.642;2023-04-01T13:11:20;0.98;;;0.50;;
69047;SDS011;56119;50.118;8.642;2023-04-01T13:16:37;1.05;;;0.60;;
69047;SDS011;56119;50.118;8.642;2023-04-01T13:29:27;1.55;;;0.65;;
69047;SDS011;56119;50.118;8.642;2023-04-01T13:52:53;1.05;;;0.30;;
69047;SDS011;56119;50.118;8.642;2023-04-01T13:57:55;1.25;;;0.30;;
69047;SDS011;56119;50.118;8.642;2023-04-01T14:00:28;0.30;;;0.30;;
69047;SDS011;56119;50.118;8.642;2023-04-01T14:08:00;0.73;;;0.30;;
69047;SDS011;56119;50.118;8.642;2023-04-01T14:10:35;0.32;;;0.20;;
69047;SDS011;56119;50.118;8.642;2023-04-01T14:13:09;0.80;;;0.30;;
69047;SDS011;56119;50.118;8.642;2023-04-01T14:29:02;1.63;;;0.40;;
69047;SDS011;56119;50.118;8.642;2023-04-01T14:34:18;1.23;;;0.40;;
69047;SDS011;56119;50.118;8.642;2023-04-01T14:36:53;2.28;;;0.98;;
69047;SDS011;56119;50.118;8.642;2023-04-01T14:49:47;3.33;;;2.67;;
69047;SDS011;56119;50.118;8.642;2023-04-01T17:35:16;1.48;;;0.73;;
69047;SDS011;56119;50.118;8.642;2023-04-01T17:37:45;1.23;;;0.80;;
69047;SDS011;56119;50.118;8.642;2023-04-01T17:40:37;1.33;;;0.70;;
69047;SDS011;56119;50.118;8.642;2023-04-01T17:50:58;2.70;;;0.60;;
69047;SDS011;56119;50.118;8.642;2023-04-01T17:53:30;1.13;;;0.60;;
69047;SDS011;56119;50.118;8.642;2023-04-01T17:56:04;1.08;;;0.70;;
69047;SDS011;56119;50.118;8.642;2023-04-01T18:06:29;1.80;;;0.77;;
69047;SDS011;56119;50.118;8.642;2023-04-01T18:14:28;2.25;;;0.90;;
69047;SDS011;56119;50.118;8.642;2023-04-01T18:17:06;1.25;;;0.75;;
69047;SDS011;56119;50.118;8.642;2023-04-01T18:22:19;2.20;;;0.80;;
69047;SDS011;56119;50.118;8.642;2023-04-01T18:25:01;1.67;;;0.80;;
69047;SDS011;56119;50.118;8.642;2023-04-01T18:27:32;1.98;;;0.90;;
69047;SDS011;56119;50.118;8.642;2023-04-01T18:30:01;4.05;;;1.00;;
69047;SDS011;56119;50.118;8.642;2023-04-01T18:32:34;1.05;;;0.65;;
69047;SDS011;56119;50.118;8.642;2023-04-01T18:40:15;1.92;;;1.20;;
69047;SDS011;56119;50.118;8.642;2023-04-01T18:42:58;3.17;;;1.00;;
69047;SDS011;56119;50.118;8.642;2023-04-01T18:45:31;4.03;;;1.55;;
69047;SDS011;56119;50.118;8.642;2023-04-01T18:50:48;1.08;;;0.68;;
69047;SDS011;56119;50.118;8.642;2023-04-01T18:53:19;1.63;;;0.93;;
69047;SDS011;56119;50.118;8.642;2023-04-01T18:56:00;1.70;;;0.88;;
69047;SDS011;56119;50.118;8.642;2023-04-01T18:59:28;1.27;;;1.00;;
69047;SDS011;56119;50.118;8.642;2023-04-01T19:01:23;1.85;;;1.15;;
69047;SDS011;56119;50.118;8.642;2023-04-01T19:06:23;3.33;;;1.50;;
69047;SDS011;56119;50.118;8.642;2023-04-01T19:08:51;1.58;;;1.08;;
69047;SDS011;56119;50.118;8.642;2023-04-01T19:11:21;1.85;;;0.95;;
69047;SDS011;56119;50.118;8.642;2023-04-01T19:19:02;1.75;;;1.10;;
69047;SDS011;56119;50.118;8.642;2023-04-01T19:32:45;1.20;;;0.70;;
69047;SDS011;56119;50.118;8.642;2023-04-01T19:35:13;0.75;;;0.57;;
69047;SDS011;56119;50.118;8.642;2023-04-01T19:37:40;1.40;;;0.73;;
69047;SDS011;56119;50.118;8.642;2023-04-01T19:40:24;1.65;;;0.75;;
69047;SDS011;56119;50.118;8.642;2023-04-01T19:43:03;1.20;;;0.63;;
69047;SDS011;56119;50.118;8.642;2023-04-01T19:48:37;1.52;;;0.80;;
69047;SDS011;56119;50.118;8.642;2023-04-01T19:53:35;1.88;;;0.98;;
69047;SDS011;56119;50.118;8.642;2023-04-01T19:58:44;1.85;;;0.70;;
69047;SDS011;56119;50.118;8.642;2023-04-01T20:01:14;2.55;;;0.85;;
69047;SDS011;56119;50.118;8.642;2023-04-01T20:04:00;1.55;;;0.90;;
69047;SDS011;56119;50.118;8.642;2023-04-01T20:06:43;2.58;;;0.93;;
69047;SDS011;56119;50.118;8.642;2023-04-01T20:09:33;2.03;;;0.80;;
69047;SDS011;56119;50.118;8.642;2023-04-01T20:17:24;3.33;;;0.80;;
69047;SDS011;56119;50.118;8.642;2023-04-01T20:25:15;1.23;;;1.00;;
69047;SDS011;56119;50.118;8.642;2023-04-01T20:27:47;1.67;;;1.10;;
69047;SDS011;56119;50.118;8.642;2023-04-01T20:30:25;2.38;;;0.73;;
69047;SDS011;56119;50.118;8.642;2023-04-01T20:33:17;1.60;;;0.80;;
69047;SDS011;56119;50.118;8.642;2023-04-01T20:36:09;2.80;;;0.90;;
69047;SDS011;56119;50.118;8.642;2023-04-01T20:38:48;0.90;;;0.50;;
69047;SDS011;56119;50.118;8.642;2023-04-01T20:41:28;2.38;;;0.82;;
69047;SDS011;56119;50.118;8.642;2023-04-01T20:44:10;0.95;;;0.70;;
69047;SDS011;56119;50.118;8.642;2023-04-01T20:46:58;1.33;;;0.98;;
69047;SDS011;56119;50.118;8.642;2023-04-01T20:49:39;1.85;;;0.98;;
69047;SDS011;56119;50.118;8.642;2023-04-01T20:59:47;2.00;;;0.93;;
69047;SDS011;56119;50.118;8.642;2023-04-01T21:07:34;1.75;;;1.08;;
69047;SDS011;56119;50.118;8.642;2023-04-01T21:17:29;1.33;;;1.10;;
69047;SDS011;56119;50.118;8.642;2023-04-01T21:20:05;2.15;;;0.98;;
69047;SDS011;56119;50.118;8.642;2023-04-01T21:22:40;2.28;;;1.00;;
69047;SDS011;56119;50.118;8.642;2023-04-01T21:28:07;1.58;;;1.10;;
69047;SDS011;56119;50.118;8.642;2023-04-01T21:38:48;5.00;;;1.42;;
69047;SDS011;56119;50.118;8.642;2023-04-01T22:05:31;4.00;;;1.80;;
69047;SDS011;56119;50.118;8.642;2023-04-01T22:10:41;2.38;;;1.13;;
69047;SDS011;56119;50.118;8.642;2023-04-01T22:13:15;2.17;;;1.30;;
69047;SDS011;56119;50.118;8.642;2023-04-01T22:29:58;3.13;;;1.00;;
69047;SDS011;56119;50.118;8.642;2023-04-01T22:32:05;2.47;;;1.23;;
69047;SDS011;56119;50.118;8.642;2023-04-01T22:34:37;2.88;;;1.40;;
69047;SDS011;56119;50.118;8.642;2023-04-01T22:39:35;5.20;;;1.98;;
69047;SDS011;56119;50.118;8.642;2023-04-01T22:52:42;2.80;;;1.70;;
69047;SDS011;56119;50.118;8.642;2023-04-01T22:55:23;4.22;;;2.58;;
69047;SDS011;56119;50.118;8.642;2023-04-01T22:58:07;2.47;;;1.30;;
69047;SDS011;56119;50.118;8.642;2023-04-01T23:00:51;2.42;;;1.30;;
69047;SDS011;56119;50.118;8.642;2023-04-01T23:03:28;2.00;;;1.50;;
69047;SDS011;56119;50.118;8.642;2023-04-01T23:05:56;2.88;;;1.20;;
69047;SDS011;56119;50.118;8.642;2023-04-01T23:11:05;1.90;;;1.13;;
69047;SDS011;56119;50.118;8.642;2023-04-01T23:13:34;2.10;;;1.20;;
69047;SDS011;56119;50.118;8.642;2023-04-01T23:16:02;1.80;;;1.30;;
69047;SDS011;56119;50.118;8.642;2023-04-01T23:21:23;1.40;;;1.30;;
69047;SDS011;56119;50.118;8.642;2023-04-01T23:23:56;2.42;;;1.27;;
69047;SDS011;56119;50.118;8.642;2023-04-01T23:26:38;1.85;;;1.50;;
69047;SDS011;56119;50.118;8.642;2023-04-01T23:29:08;1.40;;;1.30;;
69047;SDS011;56119;50.118;8.642;2023-04-01T23:31:37;2.78;;;1.95;;
69047;SDS011;56119;50.118;8.642;2023-04-01T23:36:30;4.38;;;1.70;;
69047;SDS011;56119;50.118;8.642;2023-04-01T23:38:58;1.85;;;1.33;;
69047;SDS011;56119;50.118;8.642;2023-04-01T23:41:25;1.27;;;1.17;;
69047;SDS011;56119;50.118;8.642;2023-04-01T23:44:07;1.42;;;1.17;;
69047;SDS011;56119;50.118;8.642;2023-04-01T23:46:35;2.10;;;1.30;;
69047;SDS011;56119;50.118;8.642;2023-04-01T23:49:02;3.50;;;1.30;;
69047;SDS011;56119;50.118;8.642;2023-04-01T23:51:29;4.05;;;2.17;;
69047;SDS011;56119;50.118;8.642;2023-04-01T23:54:10;3.17;;;1.35;;
69047;SDS011;56119;50.118;8.642;2023-04-01T23:56:46;1.35;;;1.23;;
69047;SDS011;56119;50.118;8.642;2023-04-01T23:59:14;2.58;;;1.50;;
